Time;durP1;ratioP1;P1;durP2;ratioP2;P2;SDS_P1;SDS_P2;PMS_P1;PMS_P2;Temp;Humidity;BMP_temperature;BMP_pressure;BME280_temperature;BME280_humidity;BME280_pressure;Samples;Min_cycle;Max_cycle;Signal;HPM_P1;HPM_P2
2024/03/08 00:01:19;;;;;;;38.67;21.30;;;;;;;1.92;67.81;100946.56;10309095;28;20056;-78
2024/03/08 00:06:22;;;;;;;36.58;20.52;;;;;;;1.91;68.20;100949.25;10310856;28;20043;-80
2024/03/08 00:11:25;;;;;;;42.80;23.17;;;;;;;1.89;68.28;100937.81;10334815;28;20046;-76
2024/03/08 00:16:30;;;;;;;38.40;22.27;;;;;;;1.84;68.95;100938.00;10347297;28;20084;-80
2024/03/08 00:21:53;;;;;;;36.67;21.83;;;;;;;1.85;69.25;100937.09;10691825;27;20422;-79
2024/03/08 00:26:58;;;;;;;36.47;22.98;;;;;;;1.88;69.07;100936.97;10685683;27;20516;-79
2024/03/08 00:32:02;;;;;;;38.92;22.85;;;;;;;1.88;68.77;100936.97;10695311;27;20098;-77
2024/03/08 00:37:06;;;;;;;39.17;23.23;;;;;;;1.89;68.77;100936.06;10679764;27;20051;-78
2024/03/08 00:42:10;;;;;;;43.58;23.95;;;;;;;1.81;68.82;100935.47;10691298;27;20061;-80
2024/03/08 00:47:13;;;;;;;42.92;23.63;;;;;;;1.80;69.13;100927.56;10659635;27;20035;-79
2024/03/08 00:52:18;;;;;;;42.95;24.40;;;;;;;1.76;69.26;100924.19;10685653;27;20053;-78
2024/03/08 00:57:22;;;;;;;41.17;22.40;;;;;;;1.73;69.53;100919.84;10678095;27;20042;-79
2024/03/08 01:02:25;;;;;;;46.25;24.35;;;;;;;1.76;69.35;100918.03;10671010;27;20046;-79
2024/03/08 01:07:30;;;;;;;41.47;24.33;;;;;;;1.72;69.10;100910.16;10689346;27;20042;-81
2024/03/08 01:12:33;;;;;;;46.25;25.33;;;;;;;1.68;69.58;100905.91;10672515;27;20049;-80
2024/03/08 01:17:38;;;;;;;41.20;24.63;;;;;;;1.70;69.49;100905.81;10677100;27;20404;-79
2024/03/08 01:22:42;;;;;;;39.47;23.60;;;;;;;1.76;69.30;100891.53;10665260;27;20098;-79
2024/03/08 01:27:45;;;;;;;45.65;25.05;;;;;;;1.77;68.94;100880.88;10682290;27;20493;-78
2024/03/08 01:32:48;;;;;;;47.05;25.50;;;;;;;1.86;68.63;100877.00;10641152;27;20113;-80
2024/03/08 01:37:53;;;;;;;43.83;24.92;;;;;;;1.86;68.59;100861.97;10636079;27;20043;-79
2024/03/08 01:42:56;;;;;;;42.70;24.73;;;;;;;1.86;68.21;100853.16;10658079;27;20771;-77
2024/03/08 01:47:59;;;;;;;41.65;23.40;;;;;;;1.79;68.62;100847.25;10643665;27;20031;-80
2024/03/08 01:53:04;;;;;;;44.10;24.52;;;;;;;1.75;68.72;100844.75;10635003;27;20051;-79
2024/03/08 01:58:10;;;;;;;47.95;24.95;;;;;;;1.65;68.88;100845.09;10656586;27;20039;-81
2024/03/08 02:03:13;;;;;;;49.78;25.60;;;;;;;1.49;69.55;100834.19;10634312;27;20053;-80
2024/03/08 02:08:18;;;;;;;41.88;24.17;;;;;;;1.44;69.96;100837.94;10638971;27;20047;-79
2024/03/08 02:13:21;;;;;;;46.53;25.58;;;;;;;1.45;69.86;100834.34;10646414;27;20459;-80
2024/03/08 02:18:24;;;;;;;49.50;26.23;;;;;;;1.45;70.06;100837.00;10670791;27;20068;-80
2024/03/08 02:23:29;;;;;;;42.75;24.85;;;;;;;1.38;69.96;100825.78;10643762;27;20601;-81
2024/03/08 02:28:33;;;;;;;41.58;23.90;;;;;;;1.32;70.19;100820.72;10657820;27;20043;-78
2024/03/08 02:33:37;;;;;;;45.13;24.95;;;;;;;1.22;69.91;100819.28;10643689;27;20486;-78
2024/03/08 02:38:41;;;;;;;42.65;23.90;;;;;;;1.20;69.81;100807.91;10657652;27;20046;-79
2024/03/08 02:43:45;;;;;;;45.50;24.40;;;;;;;1.25;69.48;100800.66;10660368;27;20095;-81
2024/03/08 02:48:48;;;;;;;47.22;24.58;;;;;;;1.33;69.21;100800.38;10644030;27;20079;-81
2024/03/08 02:53:53;;;;;;;42.13;24.25;;;;;;;1.34;68.71;100799.47;10648590;27;20122;-80
2024/03/08 02:58:56;;;;;;;44.70;24.77;;;;;;;1.38;68.09;100796.66;10658320;27;20039;-78
2024/03/08 03:03:59;;;;;;;47.33;24.38;;;;;;;1.35;67.85;100786.19;10650975;27;20057;-78
2024/03/08 03:09:06;;;;;;;47.80;24.80;;;;;;;1.28;67.71;100788.16;10656292;27;20043;-79
2024/03/08 03:14:09;;;;;;;46.38;24.17;;;;;;;1.34;67.55;100779.13;10631253;27;20096;-80
2024/03/08 03:19:12;;;;;;;46.50;24.55;;;;;;;1.22;67.86;100779.59;10654740;27;20043;-79
2024/03/08 03:24:17;;;;;;;49.55;24.85;;;;;;;1.17;68.22;100761.22;10653821;27;20114;-80
2024/03/08 03:29:21;;;;;;;45.65;25.17;;;;;;;1.13;68.49;100766.72;10664351;27;20523;-79
2024/03/08 03:34:23;;;;;;;50.17;25.48;;;;;;;1.14;68.52;100757.84;10636507;27;20046;-78
2024/03/08 03:39:31;;;;;;;49.17;26.10;;;;;;;1.17;68.12;100757.72;10650073;27;20051;-78
2024/03/08 03:44:34;;;;;;;51.92;26.60;;;;;;;1.15;67.93;100752.50;10619228;27;20057;-78
2024/03/08 03:49:37;;;;;;;50.53;26.92;;;;;;;1.22;67.56;100743.41;10623628;27;20043;-79
2024/03/08 03:54:42;;;;;;;49.97;27.08;;;;;;;1.28;67.33;100744.97;10639980;27;20051;-78
2024/03/08 03:59:45;;;;;;;51.35;27.33;;;;;;;1.27;67.22;100740.59;10651673;27;20045;-81
2024/03/08 04:04:49;;;;;;;52.05;26.95;;;;;;;1.22;67.63;100729.31;10646261;27;20961;-80
2024/03/08 04:09:53;;;;;;;46.83;26.60;;;;;;;1.22;67.42;100731.97;10641887;27;20095;-80
2024/03/08 04:14:56;;;;;;;56.85;27.02;;;;;;;1.26;67.28;100730.91;10603495;27;20146;-78
2024/03/08 04:19:59;;;;;;;45.42;24.73;;;;;;;1.15;67.58;100728.69;10648395;27;20248;-80
2024/03/08 04:25:04;;;;;;;48.75;25.83;;;;;;;0.89;68.60;100724.31;10683126;27;20047;-80
2024/03/08 04:30:08;;;;;;;44.75;25.45;;;;;;;0.78;69.31;100715.91;10632960;28;20069;-79
2024/03/08 04:35:12;;;;;;;48.35;24.50;;;;;;;0.69;69.72;100706.50;10628317;27;20100;-79
2024/03/08 04:40:18;;;;;;;51.03;26.42;;;;;;;0.50;70.52;100706.28;10639615;27;20039;-79
2024/03/08 04:45:22;;;;;;;46.90;25.98;;;;;;;0.37;71.24;100703.19;10604423;27;20043;-80
2024/03/08 04:50:25;;;;;;;54.85;26.52;;;;;;;0.36;71.73;100697.97;10641730;27;20042;-78
2024/03/08 04:55:29;;;;;;;54.85;26.38;;;;;;;0.32;71.58;100697.19;10642468;27;20144;-79
2024/03/08 05:00:32;;;;;;;50.95;26.83;;;;;;;0.27;72.24;100692.97;10648870;27;20050;-79
2024/03/08 05:05:36;;;;;;;53.78;27.77;;;;;;;0.37;72.49;100679.41;10648536;27;20053;-79
2024/03/08 05:10:41;;;;;;;48.60;26.80;;;;;;;0.38;72.26;100670.56;10658565;27;20038;-78
2024/03/08 05:15:44;;;;;;;54.45;27.35;;;;;;;0.31;72.28;100666.41;10666381;27;20431;-79
2024/03/08 05:20:47;;;;;;;54.10;26.65;;;;;;;0.21;72.92;100667.63;10651358;27;20064;-78
2024/03/08 05:25:52;;;;;;;53.35;26.40;;;;;;;0.20;73.39;100670.31;10631885;27;20047;-81
2024/03/08 05:30:56;;;;;;;47.10;25.15;;;;;;;0.17;73.66;100674.78;10684951;27;20038;-77
2024/03/08 05:36:00;;;;;;;58.17;28.40;;;;;;;0.11;74.07;100667.06;10669974;27;20131;-81
2024/03/08 05:41:05;;;;;;;52.88;26.83;;;;;;;0.09;74.15;100671.53;10634037;27;20047;-81
2024/03/08 05:46:08;;;;;;;58.53;27.52;;;;;;;0.13;74.39;100656.44;10637017;27;20035;-80
2024/03/08 05:51:12;;;;;;;66.03;27.73;;;;;;;0.26;73.90;100656.91;10644999;27;20070;-78
2024/03/08 05:56:16;;;;;;;51.20;27.00;;;;;;;0.33;73.11;100664.56;10658574;27;20050;-79
2024/03/08 06:01:20;;;;;;;52.20;27.52;;;;;;;0.42;73.23;100657.25;10634561;27;20039;-81
2024/03/08 06:06:23;;;;;;;58.38;27.65;;;;;;;0.38;72.71;100662.63;10660283;27;20053;-80
2024/03/08 06:11:30;;;;;;;53.67;26.30;;;;;;;0.50;72.47;100660.50;10643875;27;20073;-79
2024/03/08 06:16:33;;;;;;;56.63;26.65;;;;;;;0.50;72.28;100665.78;10667747;27;20049;-81
2024/03/08 06:21:39;;;;;;;55.83;28.25;;;;;;;0.58;72.21;100661.94;10633858;27;20039;-79
2024/03/08 06:26:43;;;;;;;49.67;26.48;;;;;;;0.68;72.21;100658.97;10653083;27;20051;-77
2024/03/08 06:31:46;;;;;;;52.25;27.38;;;;;;;0.83;71.80;100663.72;10675698;27;20466;-78
2024/03/08 06:36:49;;;;;;;52.83;26.67;;;;;;;1.02;70.92;100664.75;10684001;27;20050;-80
2024/03/08 06:41:54;;;;;;;53.83;26.33;;;;;;;1.22;69.90;100663.16;10638205;27;20103;-81
2024/03/08 06:46:58;;;;;;;72.40;30.00;;;;;;;1.61;72.53;100657.22;10664795;27;20035;-80
2024/03/08 06:52:04;;;;;;;110.57;43.50;;;;;;;2.15;69.13;100662.09;10628050;27;20043;-80
2024/03/08 06:57:10;;;;;;;47.92;25.75;;;;;;;2.75;65.76;100659.56;10621251;27;20112;-80
2024/03/08 07:02:13;;;;;;;42.35;25.63;;;;;;;3.01;63.72;100655.72;10643210;27;20469;-80
2024/03/08 07:07:16;;;;;;;45.58;26.05;;;;;;;3.42;62.31;100660.06;10658182;27;20049;-81
2024/03/08 07:12:23;;;;;;;49.15;25.00;;;;;;;3.60;60.08;100663.66;10627169;27;20043;-79
2024/03/08 07:17:26;;;;;;;43.97;25.70;;;;;;;3.57;59.17;100662.00;10630751;27;20043;-80
2024/03/08 07:22:29;;;;;;;46.88;25.80;;;;;;;3.54;59.04;100672.78;10652476;27;20353;-81
2024/03/08 07:27:34;;;;;;;44.40;25.27;;;;;;;3.57;59.21;100664.66;10647418;27;20039;-79
2024/03/08 07:38:16;;;;;;;46.83;26.23;;;;;;;3.72;58.75;100663.91;10387971;23;20051;-81
2024/03/08 07:43:22;;;;;;;51.28;27.90;;;;;;;3.81;58.09;100651.13;10230614;28;20050;-79
2024/03/08 07:48:25;;;;;;;49.55;27.30;;;;;;;3.77;57.97;100650.44;10207411;28;20048;-82
2024/03/08 07:53:28;;;;;;;50.25;27.98;;;;;;;4.02;57.50;100641.25;10200940;29;20036;-83
2024/03/08 07:58:33;;;;;;;55.33;28.67;;;;;;;4.07;57.04;100640.09;10231303;29;20040;-80
2024/03/08 08:03:37;;;;;;;44.78;26.63;;;;;;;4.33;56.35;100632.56;10251417;29;20040;-80
2024/03/08 08:08:42;;;;;;;49.85;25.65;;;;;;;4.43;55.90;100630.31;10200307;28;20059;-81
2024/03/08 08:13:47;;;;;;;51.08;28.30;;;;;;;4.83;55.03;100637.09;10212459;28;20044;-81
2024/03/08 08:18:50;;;;;;;48.13;27.75;;;;;;;5.01;54.33;100637.94;10206413;28;20040;-81
2024/03/08 08:23:53;;;;;;;45.42;26.10;;;;;;;5.24;53.65;100631.38;10199080;28;20051;-81
2024/03/08 08:28:59;;;;;;;48.22;27.77;;;;;;;5.27;53.12;100624.06;10186906;28;20514;-83
2024/03/08 08:34:02;;;;;;;46.85;26.63;;;;;;;5.62;52.58;100623.03;10220908;28;20047;-81
2024/03/08 08:39:12;;;;;;;49.30;28.45;;;;;;;5.91;51.83;100614.22;10233667;28;20051;-81
2024/03/08 08:44:16;;;;;;;43.65;26.75;;;;;;;5.86;51.92;100608.28;10237156;28;20066;-80
2024/03/08 08:49:20;;;;;;;47.28;25.75;;;;;;;6.05;51.55;100605.41;10198641;28;20058;-82
2024/03/08 08:54:24;;;;;;;46.17;25.08;;;;;;;6.49;50.88;100603.72;10212608;28;20055;-82
2024/03/08 08:59:30;;;;;;;43.25;24.70;;;;;;;6.47;50.61;100592.28;10220316;28;20429;-81
2024/03/08 09:04:33;;;;;;;42.78;26.38;;;;;;;6.67;50.19;100594.59;10205009;28;20756;-82
2024/03/08 09:09:36;;;;;;;43.75;25.27;;;;;;;7.33;49.16;100582.47;10206746;28;20538;-82
2024/03/08 09:14:41;;;;;;;48.90;26.48;;;;;;;7.66;48.78;100570.53;10205719;28;20070;-82
2024/03/08 09:19:44;;;;;;;43.08;25.67;;;;;;;7.34;48.30;100561.94;10206420;28;20051;-83
2024/03/08 09:24:47;;;;;;;40.00;24.30;;;;;;;7.75;47.59;100561.06;10211636;28;20059;-83
2024/03/08 09:29:52;;;;;;;41.17;23.83;;;;;;;7.79;47.98;100558.09;10218791;28;20583;-82
2024/03/08 09:34:55;;;;;;;43.95;26.08;;;;;;;7.92;47.62;100550.06;10218037;28;20510;-81
2024/03/08 09:39:59;;;;;;;39.45;24.02;;;;;;;7.42;47.61;100528.41;10204323;28;20048;-82
2024/03/08 09:45:05;;;;;;;41.17;24.52;;;;;;;7.64;47.47;100514.50;10195734;28;20051;-83
2024/03/08 09:50:10;;;;;;;38.25;23.60;;;;;;;8.24;46.48;100501.53;10205152;28;20051;-81
2024/03/08 09:55:13;;;;;;;39.47;24.25;;;;;;;8.64;46.19;100499.66;10211545;28;20043;-82
2024/03/08 10:00:24;;;;;;;39.85;24.95;;;;;;;9.12;45.83;100496.19;10205112;28;20062;-83
2024/03/08 10:05:27;;;;;;;39.95;23.92;;;;;;;9.09;45.55;100480.34;10183726;28;20115;-82
2024/03/08 10:10:30;;;;;;;39.10;23.88;;;;;;;9.73;44.73;100470.16;10210228;28;20051;-82
2024/03/08 10:15:35;;;;;;;35.83;22.55;;;;;;;9.87;43.77;100463.75;10210988;28;20051;-83
2024/03/08 10:20:38;;;;;;;35.55;23.70;;;;;;;9.85;43.96;100460.34;10207798;28;20050;-84
2024/03/08 10:25:42;;;;;;;39.63;21.85;;;;;;;10.23;42.87;100451.16;10193372;28;20054;-82
2024/03/08 10:30:49;;;;;;;37.55;23.23;;;;;;;10.54;42.86;100444.22;10202500;28;20051;-83
2024/03/08 10:35:52;;;;;;;34.80;22.90;;;;;;;10.47;42.61;100441.16;10217574;28;20072;-83
2024/03/08 10:40:56;;;;;;;36.70;21.77;;;;;;;10.78;42.11;100438.72;10209000;28;20047;-83
2024/03/08 10:46:22;;;;;;;33.92;21.45;;;;;;;11.09;42.40;100420.91;10211512;28;20554;-83
2024/03/08 10:51:26;;;;;;;33.53;21.85;;;;;;;11.10;41.03;100416.38;10205278;28;20051;-83
2024/03/08 10:56:30;;;;;;;36.15;23.33;;;;;;;11.16;41.31;100418.59;10204865;28;20422;-84
2024/03/08 11:07:17;;;;;;;31.63;21.42;;;;;;;12.01;39.74;100407.75;11594253;23;20058;-82
2024/03/08 11:12:25;;;;;;;36.72;21.80;;;;;;;12.94;37.99;100395.94;10217364;29;20425;-82
2024/03/08 11:17:45;;;;;;;36.05;22.35;;;;;;;13.59;37.61;100384.63;10241083;29;20096;-81
2024/03/08 11:22:54;;;;;;;33.22;22.15;;;;;;;13.58;37.71;100378.38;10277925;29;20051;-81
2024/03/08 11:28:09;;;;;;;34.92;22.63;;;;;;;13.16;37.15;100375.94;10266569;28;20074;-83
2024/03/08 11:33:16;;;;;;;32.28;22.33;;;;;;;13.21;37.76;100362.03;10254735;28;20459;-83
2024/03/08 11:38:20;;;;;;;35.58;21.75;;;;;;;13.57;37.09;100346.13;10257694;29;20044;-83
2024/03/08 11:43:24;;;;;;;30.08;20.52;;;;;;;13.47;37.05;100344.31;10254270;28;20043;-83
2024/03/08 11:48:27;;;;;;;31.13;20.55;;;;;;;12.25;38.12;100350.91;10247937;29;20074;-82
2024/03/08 11:53:32;;;;;;;29.50;18.83;;;;;;;12.74;37.63;100335.75;10256374;29;20070;-83
2024/03/08 11:58:36;;;;;;;29.75;20.02;;;;;;;13.32;36.48;100324.13;10255424;28;20039;-82
2024/03/08 12:03:39;;;;;;;30.60;21.42;;;;;;;14.07;35.31;100290.00;10255066;29;20586;-82
2024/03/08 12:08:44;;;;;;;26.83;18.65;;;;;;;14.37;35.39;100288.84;10256095;28;20445;-82
2024/03/08 12:13:50;;;;;;;26.92;18.88;;;;;;;14.92;35.10;100284.34;10257528;28;20098;-83
2024/03/08 12:18:53;;;;;;;27.25;18.45;;;;;;;14.59;34.72;100282.19;10251472;28;20043;-82
2024/03/08 12:24:08;;;;;;;29.38;18.55;;;;;;;13.98;36.82;100276.53;10250832;29;20054;-82
2024/03/08 12:29:20;;;;;;;26.20;18.25;;;;;;;13.39;36.94;100254.31;10249173;28;20103;-82
2024/03/08 12:34:23;;;;;;;24.58;16.08;;;;;;;14.21;35.86;100258.94;10246051;28;20051;-81
2024/03/08 12:39:27;;;;;;;27.23;19.08;;;;;;;13.63;36.43;100243.88;10254345;28;20059;-81
2024/03/08 12:44:31;;;;;;;28.50;18.88;;;;;;;13.69;36.74;100239.72;10253630;28;20090;-83
2024/03/08 12:49:34;;;;;;;27.88;21.75;;;;;;;13.31;36.51;100236.09;10245929;29;20055;-82
2024/03/08 12:54:38;;;;;;;29.00;20.25;;;;;;;13.63;36.55;100224.09;10257673;29;20039;-82
2024/03/08 12:59:42;;;;;;;30.55;19.58;;;;;;;14.18;37.73;100205.22;10252940;28;20043;-83
2024/03/08 13:04:45;;;;;;;28.75;19.60;;;;;;;17.04;33.26;100193.19;10244301;29;20050;-83
2024/03/08 13:09:50;;;;;;;29.33;20.52;;;;;;;16.92;33.25;100190.97;10261972;29;20039;-83
2024/03/08 13:14:56;;;;;;;31.33;21.40;;;;;;;16.33;33.79;100183.00;10253180;28;20036;-82
2024/03/08 13:19:59;;;;;;;30.77;21.30;;;;;;;16.31;33.44;100172.28;10249226;28;20457;-84
2024/03/08 13:25:05;;;;;;;30.40;21.33;;;;;;;17.23;32.54;100164.84;10251412;28;20091;-83
2024/03/08 13:30:12;;;;;;;31.60;21.23;;;;;;;17.03;32.39;100152.63;10266014;28;20055;-84
2024/03/08 13:35:15;;;;;;;30.48;21.45;;;;;;;17.64;32.45;100140.28;10246836;28;20578;-84
2024/03/08 13:40:20;;;;;;;30.67;21.67;;;;;;;18.02;31.64;100129.59;10214025;28;20631;-84
2024/03/08 13:45:24;;;;;;;30.58;20.17;;;;;;;17.40;32.34;100126.81;10214253;28;20062;-83
2024/03/08 13:50:27;;;;;;;28.58;21.90;;;;;;;18.68;30.56;100129.13;10213999;28;20043;-81
2024/03/08 13:55:33;;;;;;;29.83;22.58;;;;;;;17.57;31.66;100119.44;10217737;28;20418;-81
2024/03/08 14:00:36;;;;;;;29.58;21.23;;;;;;;18.09;31.82;100107.97;10209217;28;20442;-82
2024/03/08 14:05:41;;;;;;;29.23;20.83;;;;;;;18.14;31.44;100095.53;10211414;28;20531;-82
2024/03/08 14:10:46;;;;;;;31.83;20.65;;;;;;;17.84;31.95;100072.78;10210867;28;20058;-82
2024/03/08 14:15:50;;;;;;;29.75;21.27;;;;;;;17.88;31.64;100057.81;10212359;28;20055;-82
2024/03/08 14:20:53;;;;;;;27.67;21.08;;;;;;;17.12;32.49;100059.34;10207484;28;20042;-81
2024/03/08 14:25:59;;;;;;;36.85;23.17;;;;;;;15.37;34.48;100042.56;10204726;28;20945;-81
2024/03/08 14:31:03;;;;;;;32.20;21.38;;;;;;;15.00;35.39;100057.22;10211220;28;20534;-82
2024/03/08 14:36:13;;;;;;;32.05;21.50;;;;;;;15.97;35.02;100034.22;10204841;28;20541;-82
2024/03/08 14:41:17;;;;;;;30.65;21.55;;;;;;;16.48;34.03;100034.06;10196215;28;20074;-81
2024/03/08 14:46:23;;;;;;;31.55;21.58;;;;;;;17.45;33.16;100018.53;10193665;28;20122;-82
2024/03/08 14:51:27;;;;;;;26.77;19.52;;;;;;;17.28;33.38;100011.47;10204301;28;20058;-84
2024/03/08 14:56:32;;;;;;;29.77;20.58;;;;;;;16.37;33.61;100010.88;10208569;28;20387;-82
2024/03/08 15:01:35;;;;;;;28.65;19.77;;;;;;;15.44;34.80;99992.16;10197714;28;20043;-82
2024/03/08 15:06:39;;;;;;;31.40;19.13;;;;;;;15.63;35.01;99980.19;10194468;28;20055;-81
2024/03/08 15:11:46;;;;;;;27.80;18.92;;;;;;;13.89;36.98;99982.13;10193562;28;20055;-81
2024/03/08 15:16:49;;;;;;;32.15;20.08;;;;;;;13.59;38.49;99980.66;10201570;28;20051;-81
2024/03/08 15:21:55;;;;;;;29.67;19.77;;;;;;;13.25;38.23;99972.38;10192942;28;20046;-81
2024/03/08 15:27:01;;;;;;;31.58;20.83;;;;;;;13.18;39.63;99968.56;10190365;28;20047;-82
2024/03/08 15:32:06;;;;;;;29.23;20.55;;;;;;;12.43;39.70;99965.94;10217613;28;20047;-80
2024/03/08 15:37:14;;;;;;;34.50;20.75;;;;;;;12.58;40.51;99963.59;10227695;28;20477;-80
2024/03/08 15:42:19;;;;;;;33.92;22.88;;;;;;;12.69;41.17;99962.56;10212646;28;20110;-80
2024/03/08 15:47:22;;;;;;;38.17;23.88;;;;;;;12.40;41.96;99952.78;10209096;28;20074;-80
2024/03/08 15:52:26;;;;;;;38.70;22.65;;;;;;;11.87;43.08;99947.88;10208394;28;20048;-80
2024/03/08 15:57:30;;;;;;;35.47;22.67;;;;;;;11.38;43.96;99952.41;10197440;28;20202;-80
2024/03/08 16:02:33;;;;;;;38.38;22.98;;;;;;;11.67;43.99;99945.19;10199667;28;20050;-81
2024/03/08 16:07:36;;;;;;;36.20;23.63;;;;;;;11.54;44.20;99936.56;10212497;28;20066;-81
2024/03/08 16:12:41;;;;;;;40.13;25.42;;;;;;;10.60;45.94;99942.28;10212835;28;20106;-82
2024/03/08 16:17:44;;;;;;;39.97;25.90;;;;;;;10.77;45.96;99945.31;10210679;28;20051;-81
2024/03/08 16:22:51;;;;;;;39.75;24.08;;;;;;;10.84;46.46;99955.38;10192725;28;20062;-80
2024/03/08 16:27:56;;;;;;;41.28;24.67;;;;;;;10.88;46.32;99936.31;10195864;28;20119;-81
2024/03/08 16:32:59;;;;;;;37.75;23.45;;;;;;;10.26;47.51;99946.25;10195367;28;20051;-81
2024/03/08 16:38:03;;;;;;;39.40;24.55;;;;;;;10.05;48.13;99941.72;10192352;28;20207;-81
2024/03/08 16:43:11;;;;;;;42.33;26.42;;;;;;;9.86;48.89;99938.91;10202178;28;20534;-82
2024/03/08 16:48:14;;;;;;;42.63;25.73;;;;;;;9.37;50.00;99935.81;10202688;28;20051;-80
2024/03/08 16:53:17;;;;;;;42.50;25.30;;;;;;;9.21;50.73;99941.59;10203853;28;20049;-80
2024/03/08 16:58:23;;;;;;;43.45;28.52;;;;;;;8.81;51.50;99936.81;10195390;28;20053;-80
2024/03/08 17:03:27;;;;;;;45.58;27.38;;;;;;;8.52;52.25;99928.44;10201267;28;20043;-80
2024/03/08 17:08:30;;;;;;;46.80;25.63;;;;;;;8.52;52.75;99928.44;10212776;28;20140;-80
2024/03/08 17:13:34;;;;;;;44.55;26.42;;;;;;;8.22;53.48;99928.16;10230948;28;20047;-80
2024/03/08 17:18:37;;;;;;;45.70;26.33;;;;;;;8.03;54.03;99918.88;10217820;28;20083;-79
2024/03/08 17:23:41;;;;;;;46.42;26.35;;;;;;;7.80;55.30;99923.34;10205968;28;20051;-78
2024/03/08 17:28:47;;;;;;;47.30;27.13;;;;;;;7.66;55.57;99908.38;10234515;28;20051;-81
2024/03/08 17:33:51;;;;;;;47.08;24.83;;;;;;;7.41;56.44;99911.19;10224702;28;20054;-80
2024/03/08 17:38:54;;;;;;;45.53;26.13;;;;;;;7.20;57.12;99902.97;10219638;28;20051;-82
2024/03/08 17:43:59;;;;;;;45.58;26.90;;;;;;;7.16;57.59;99901.47;10210460;28;20050;-81
2024/03/08 17:49:02;;;;;;;48.15;26.27;;;;;;;7.05;57.63;99904.97;10200716;28;20094;-82
2024/03/08 17:54:10;;;;;;;50.50;27.92;;;;;;;7.02;57.86;99899.81;10218272;28;20090;-82
2024/03/08 17:59:15;;;;;;;49.15;26.27;;;;;;;7.10;57.64;99901.94;10216976;28;20071;-81
2024/03/08 18:04:18;;;;;;;48.88;27.30;;;;;;;6.90;58.16;99904.25;10223240;28;20051;-81
2024/03/08 18:09:23;;;;;;;46.80;25.95;;;;;;;6.83;58.71;99900.31;10231462;28;20047;-81
2024/03/08 18:14:27;;;;;;;51.33;27.60;;;;;;;6.69;58.98;99893.31;10248856;28;20051;-82
2024/03/08 18:19:31;;;;;;;49.63;27.55;;;;;;;6.71;58.89;99887.84;10222417;28;20039;-81
2024/03/08 18:24:34;;;;;;;52.03;28.20;;;;;;;6.58;59.29;99883.41;10216488;28;21187;-81
2024/03/08 18:29:39;;;;;;;48.63;26.45;;;;;;;6.60;59.25;99891.28;10221503;28;20118;-81
2024/03/08 18:34:44;;;;;;;46.30;25.45;;;;;;;6.54;59.52;99887.25;10209820;28;20055;-81
2024/03/08 18:39:47;;;;;;;48.20;26.38;;;;;;;6.53;59.08;99895.41;10213237;28;20043;-82
2024/03/08 18:44:52;;;;;;;52.78;26.83;;;;;;;6.49;59.39;99897.41;10207960;28;20047;-81
2024/03/08 18:49:55;;;;;;;62.83;34.05;;;;;;;6.31;59.71;99888.91;10211124;28;20198;-80
2024/03/08 18:54:58;;;;;;;63.65;35.33;;;;;;;6.28;59.88;99891.81;10214508;28;20047;-80
2024/03/08 19:00:12;;;;;;;62.28;34.67;;;;;;;6.16;60.32;99882.00;10226720;28;20052;-81
2024/03/08 19:05:16;;;;;;;60.25;29.88;;;;;;;6.20;60.40;99878.16;10208139;28;20605;-80
2024/03/08 19:10:21;;;;;;;58.13;31.88;;;;;;;6.18;60.44;99882.75;10194462;28;20540;-80
2024/03/08 19:15:26;;;;;;;50.83;27.33;;;;;;;6.20;60.37;99885.28;10224715;28;20051;-81
2024/03/08 19:20:33;;;;;;;53.35;27.10;;;;;;;6.13;60.22;99877.72;10231551;28;20047;-81
2024/03/08 19:25:40;;;;;;;51.25;27.90;;;;;;;6.07;60.19;99872.81;10226668;28;20055;-81
2024/03/08 19:30:48;;;;;;;48.50;25.73;;;;;;;6.10;59.84;99877.09;10211660;28;20054;-81
2024/03/08 19:35:51;;;;;;;52.50;26.05;;;;;;;6.04;59.98;99866.88;10218984;28;20130;-81
2024/03/08 19:40:54;;;;;;;42.20;25.10;;;;;;;6.01;60.00;99867.09;10214411;28;20054;-81
2024/03/08 19:45:58;;;;;;;44.50;26.80;;;;;;;5.93;59.86;99870.28;10216180;28;20039;-81
2024/03/08 19:51:04;;;;;;;46.25;26.42;;;;;;;5.97;59.56;99873.59;10216314;28;20065;-82
2024/03/08 19:56:08;;;;;;;45.22;25.90;;;;;;;5.96;59.66;99872.75;10244274;28;20065;-82
2024/03/08 20:01:14;;;;;;;48.03;25.73;;;;;;;5.88;59.61;99869.75;10244801;28;20110;-82
2024/03/08 20:06:18;;;;;;;44.15;24.77;;;;;;;5.80;60.12;99867.63;10213420;28;20052;-82
2024/03/08 20:11:21;;;;;;;44.83;24.15;;;;;;;5.68;60.23;99866.66;10220753;28;20115;-82
2024/03/08 20:16:26;;;;;;;49.63;25.63;;;;;;;5.58;60.72;99862.06;10219273;28;20106;-82
2024/03/08 20:21:29;;;;;;;44.13;24.48;;;;;;;5.56;60.64;99858.66;10214881;28;20047;-82
2024/03/08 20:26:32;;;;;;;43.80;23.52;;;;;;;5.57;61.01;99852.34;10220214;28;20055;-82
2024/03/08 20:31:37;;;;;;;45.17;24.00;;;;;;;5.53;60.80;99853.53;10222973;28;20047;-83
2024/03/08 20:36:40;;;;;;;55.15;28.35;;;;;;;5.45;61.24;99844.22;10233053;28;20047;-82
2024/03/08 20:41:44;;;;;;;46.42;25.55;;;;;;;5.34;61.65;99853.91;10238200;28;20050;-81
2024/03/08 20:46:49;;;;;;;47.10;26.00;;;;;;;5.22;62.11;99827.16;10237168;28;20039;-82
2024/03/08 20:51:52;;;;;;;47.13;24.52;;;;;;;5.20;62.40;99822.91;10241169;28;20743;-80
2024/03/08 20:56:55;;;;;;;45.28;25.08;;;;;;;5.17;62.56;99817.78;10216052;28;20170;-82
2024/03/08 21:02:00;;;;;;;48.78;26.20;;;;;;;5.24;62.29;99803.97;10240980;28;20054;-80
2024/03/08 21:07:06;;;;;;;49.30;25.52;;;;;;;5.21;62.48;99792.63;10222133;28;20051;-82
2024/03/08 21:12:11;;;;;;;50.92;25.40;;;;;;;5.21;62.64;99784.66;10219038;28;20058;-82
2024/03/08 21:17:15;;;;;;;46.83;24.48;;;;;;;5.13;62.76;99771.00;10225180;28;20064;-82
2024/03/08 21:22:18;;;;;;;46.88;25.88;;;;;;;5.10;63.04;99782.75;10233540;28;20059;-83
2024/03/08 21:27:22;;;;;;;47.15;25.35;;;;;;;5.18;62.76;99771.56;10228520;28;20051;-81
2024/03/08 21:32:27;;;;;;;44.65;24.30;;;;;;;5.21;62.88;99766.00;10220646;28;20062;-82
2024/03/08 21:37:30;;;;;;;49.83;25.60;;;;;;;5.21;62.93;99764.22;10225425;28;20062;-81
2024/03/08 21:42:34;;;;;;;49.60;25.60;;;;;;;5.26;62.77;99758.56;10254090;28;20074;-81
2024/03/08 21:47:38;;;;;;;50.38;23.90;;;;;;;5.27;62.71;99750.50;10225485;28;20860;-81
2024/03/08 21:52:41;;;;;;;48.40;26.00;;;;;;;5.09;63.19;99742.91;10225920;28;20059;-81
2024/03/08 21:57:45;;;;;;;48.88;25.63;;;;;;;5.09;63.17;99743.75;10228029;28;20055;-81
2024/03/08 22:02:51;;;;;;;46.47;26.70;;;;;;;5.17;63.00;99741.41;10226734;28;20073;-81
2024/03/08 22:07:54;;;;;;;51.42;25.63;;;;;;;5.06;63.44;99742.16;10226993;28;20136;-83
2024/03/08 22:12:57;;;;;;;47.13;25.33;;;;;;;5.09;63.40;99737.59;10231017;28;20047;-83
2024/03/08 22:18:01;;;;;;;49.28;25.20;;;;;;;4.95;63.71;99731.34;10208166;28;20568;-83
2024/03/08 22:23:05;;;;;;;49.88;26.50;;;;;;;5.01;63.48;99732.78;10213867;28;20058;-83
2024/03/08 22:28:09;;;;;;;45.70;25.02;;;;;;;4.96;64.04;99733.03;10216664;28;20056;-83
2024/03/08 22:33:14;;;;;;;50.30;26.15;;;;;;;4.95;63.96;99726.03;10210323;28;20048;-83
2024/03/08 22:38:17;;;;;;;48.63;26.48;;;;;;;4.82;64.48;99718.00;10206028;28;20521;-81
2024/03/08 22:43:21;;;;;;;48.08;25.70;;;;;;;4.77;64.70;99728.16;10228512;28;20055;-82
2024/03/08 22:48:26;;;;;;;49.80;25.40;;;;;;;4.87;64.16;99731.03;10210966;28;20086;-81
2024/03/08 22:53:29;;;;;;;46.83;25.95;;;;;;;4.83;64.54;99727.72;10204653;28;20074;-82
2024/03/08 22:58:33;;;;;;;50.05;26.73;;;;;;;4.74;64.91;99728.31;10215180;28;20044;-82
2024/03/08 23:03:38;;;;;;;47.58;24.77;;;;;;;4.67;65.13;99734.19;10213547;28;20062;-82
2024/03/08 23:08:45;;;;;;;52.78;26.70;;;;;;;4.58;65.96;99715.22;10211479;28;20055;-82
2024/03/08 23:13:48;;;;;;;47.42;25.27;;;;;;;4.62;65.86;99715.84;10208023;28;20134;-83